sensor_id;sensor_type;location;lat;lon;timestamp;temperature;humidity
27978;DHT22;15314;49.248;6.968;2023-12-29T00:00:21;9.20;99.90
27978;DHT22;15314;49.248;6.968;2023-12-29T00:01:28;9.10;99.90
27978;DHT22;15314;49.248;6.968;2023-12-29T00:02:29;9.10;99.90
27978;DHT22;15314;49.248;6.968;2023-12-29T00:03:30;9.10;99.90
27978;DHT22;15314;49.248;6.968;2023-12-29T00:04:30;9.10;99.90
27978;DHT22;15314;49.248;6.968;2023-12-29T00:05:31;9.20;99.90
27978;DHT22;15314;49.248;6.968;2023-12-29T00:06:32;9.20;99.90
27978;DHT22;15314;49.248;6.968;2023-12-29T00:07:32;9.20;99.90
27978;DHT22;15314;49.248;6.968;2023-12-29T00:08:33;9.30;99.90
27978;DHT22;15314;49.248;6.968;2023-12-29T00:09:34;9.40;99.90
27978;DHT22;15314;49.248;6.968;2023-12-29T00:10:40;9.40;99.90
27978;DHT22;15314;49.248;6.968;2023-12-29T00:11:41;9.40;99.90
27978;DHT22;15314;49.248;6.968;2023-12-29T00:12:42;9.50;99.90
27978;DHT22;15314;49.248;6.968;2023-12-29T00:13:42;9.50;99.90
27978;DHT22;15314;49.248;6.968;2023-12-29T00:14:43;9.50;99.90
27978;DHT22;15314;49.248;6.968;2023-12-29T00:15:44;9.50;99.90
27978;DHT22;15314;49.248;6.968;2023-12-29T00:16:47;9.50;99.90
27978;DHT22;15314;49.248;6.968;2023-12-29T00:17:47;9.40;99.90
27978;DHT22;15314;49.248;6.968;2023-12-29T00:18:48;9.40;99.90
27978;DHT22;15314;49.248;6.968;2023-12-29T00:19:49;9.40;99.90
27978;DHT22;15314;49.248;6.968;2023-12-29T00:20:49;9.40;99.90
27978;DHT22;15314;49.248;6.968;2023-12-29T00:21:50;9.30;99.90
27978;DHT22;15314;49.248;6.968;2023-12-29T00:22:50;9.30;99.90
27978;DHT22;15314;49.248;6.968;2023-12-29T00:23:51;9.30;99.90
27978;DHT22;15314;49.248;6.968;2023-12-29T00:24:52;9.20;99.90
27978;DHT22;15314;49.248;6.968;2023-12-29T00:25:52;9.20;99.90
27978;DHT22;15314;49.248;6.968;2023-12-29T00:26:53;9.20;99.90
27978;DHT22;15314;49.248;6.968;2023-12-29T00:27:53;9.10;99.90
27978;DHT22;15314;49.248;6.968;2023-12-29T00:28:54;9.10;99.90
27978;DHT22;15314;49.248;6.968;2023-12-29T00:29:55;9.10;99.90
27978;DHT22;15314;49.248;6.968;2023-12-29T00:30:56;9.00;99.90
27978;DHT22;15314;49.248;6.968;2023-12-29T00:31:56;9.10;99.90
27978;DHT22;15314;49.248;6.968;2023-12-29T00:32:57;9.10;99.90
27978;DHT22;15314;49.248;6.968;2023-12-29T00:33:58;9.00;99.90
27978;DHT22;15314;49.248;6.968;2023-12-29T00:34:58;9.10;99.90
27978;DHT22;15314;49.248;6.968;2023-12-29T00:35:59;9.10;99.90
27978;DHT22;15314;49.248;6.968;2023-12-29T00:37:00;9.10;99.90
27978;DHT22;15314;49.248;6.968;2023-12-29T00:38:00;9.10;99.90
27978;DHT22;15314;49.248;6.968;2023-12-29T00:39:01;9.10;99.90
27978;DHT22;15314;49.248;6.968;2023-12-29T00:40:01;9.10;99.90
27978;DHT22;15314;49.248;6.968;2023-12-29T00:41:04;9.10;99.90
27978;DHT22;15314;49.248;6.968;2023-12-29T00:42:06;9.10;99.90
27978;DHT22;15314;49.248;6.968;2023-12-29T00:43:07;9.10;99.90
27978;DHT22;15314;49.248;6.968;2023-12-29T00:44:07;9.20;99.90
27978;DHT22;15314;49.248;6.968;2023-12-29T00:45:08;9.10;99.90
27978;DHT22;15314;49.248;6.968;2023-12-29T00:46:09;9.10;99.90
27978;DHT22;15314;49.248;6.968;2023-12-29T00:47:10;9.10;99.90
27978;DHT22;15314;49.248;6.968;2023-12-29T00:48:10;9.00;99.90
27978;DHT22;15314;49.248;6.968;2023-12-29T00:49:11;9.00;99.90
27978;DHT22;15314;49.248;6.968;2023-12-29T00:50:11;9.00;99.90
27978;DHT22;15314;49.248;6.968;2023-12-29T00:51:12;9.10;99.90
27978;DHT22;15314;49.248;6.968;2023-12-29T00:52:13;9.10;99.90
27978;DHT22;15314;49.248;6.968;2023-12-29T00:53:13;9.10;99.90
27978;DHT22;15314;49.248;6.968;2023-12-29T00:54:14;9.10;99.90
27978;DHT22;15314;49.248;6.968;2023-12-29T00:55:15;9.20;99.90
27978;DHT22;15314;49.248;6.968;2023-12-29T00:56:17;9.20;99.90
27978;DHT22;15314;49.248;6.968;2023-12-29T00:57:17;9.20;99.90
27978;DHT22;15314;49.248;6.968;2023-12-29T00:58:19;9.30;99.90
27978;DHT22;15314;49.248;6.968;2023-12-29T00:59:19;9.30;99.90
27978;DHT22;15314;49.248;6.968;2023-12-29T01:00:20;9.40;99.90
27978;DHT22;15314;49.248;6.968;2023-12-29T01:01:21;9.30;99.90
27978;DHT22;15314;49.248;6.968;2023-12-29T01:02:21;9.30;99.90
27978;DHT22;15314;49.248;6.968;2023-12-29T01:03:23;9.30;99.90
27978;DHT22;15314;49.248;6.968;2023-12-29T01:04:26;9.30;99.90
27978;DHT22;15314;49.248;6.968;2023-12-29T01:05:27;9.30;99.90
27978;DHT22;15314;49.248;6.968;2023-12-29T01:06:28;9.30;99.90
27978;DHT22;15314;49.248;6.968;2023-12-29T01:07:28;9.20;99.90
27978;DHT22;15314;49.248;6.968;2023-12-29T01:08:29;9.20;99.90
27978;DHT22;15314;49.248;6.968;2023-12-29T01:09:30;9.20;99.90
27978;DHT22;15314;49.248;6.968;2023-12-29T01:10:30;9.20;99.90
27978;DHT22;15314;49.248;6.968;2023-12-29T01:11:31;9.20;99.90
27978;DHT22;15314;49.248;6.968;2023-12-29T01:12:32;9.20;99.90
27978;DHT22;15314;49.248;6.968;2023-12-29T01:13:32;9.30;99.90
27978;DHT22;15314;49.248;6.968;2023-12-29T01:14:33;9.20;99.90
27978;DHT22;15314;49.248;6.968;2023-12-29T01:15:34;9.20;99.90
27978;DHT22;15314;49.248;6.968;2023-12-29T01:16:34;9.20;99.90
27978;DHT22;15314;49.248;6.968;2023-12-29T01:17:35;9.20;99.90
27978;DHT22;15314;49.248;6.968;2023-12-29T01:18:36;9.20;99.90
27978;DHT22;15314;49.248;6.968;2023-12-29T01:19:36;9.20;99.90
27978;DHT22;15314;49.248;6.968;2023-12-29T01:20:37;9.30;99.90
27978;DHT22;15314;49.248;6.968;2023-12-29T01:21:40;9.40;99.90
27978;DHT22;15314;49.248;6.968;2023-12-29T01:22:40;9.40;99.90
27978;DHT22;15314;49.248;6.968;2023-12-29T01:23:41;9.40;99.90
27978;DHT22;15314;49.248;6.968;2023-12-29T01:24:41;9.40;99.90
27978;DHT22;15314;49.248;6.968;2023-12-29T01:25:42;9.40;99.90
27978;DHT22;15314;49.248;6.968;2023-12-29T01:26:43;9.40;99.90
27978;DHT22;15314;49.248;6.968;2023-12-29T01:27:43;9.40;99.90
27978;DHT22;15314;49.248;6.968;2023-12-29T01:28:44;9.40;99.90
27978;DHT22;15314;49.248;6.968;2023-12-29T01:29:45;9.40;99.90
27978;DHT22;15314;49.248;6.968;2023-12-29T01:30:45;9.40;99.90
27978;DHT22;15314;49.248;6.968;2023-12-29T01:31:46;9.40;99.90
27978;DHT22;15314;49.248;6.968;2023-12-29T01:32:47;9.40;99.90
27978;DHT22;15314;49.248;6.968;2023-12-29T01:33:48;9.40;99.90
27978;DHT22;15314;49.248;6.968;2023-12-29T01:34:49;9.50;99.90
27978;DHT22;15314;49.248;6.968;2023-12-29T01:35:49;9.50;99.90
27978;DHT22;15314;49.248;6.968;2023-12-29T01:36:51;9.60;99.90
27978;DHT22;15314;49.248;6.968;2023-12-29T01:37:51;9.60;99.90
27978;DHT22;15314;49.248;6.968;2023-12-29T01:38:52;9.70;99.90
27978;DHT22;15314;49.248;6.968;2023-12-29T01:39:53;9.60;99.90
27978;DHT22;15314;49.248;6.968;2023-12-29T01:40:53;9.70;99.90
27978;DHT22;15314;49.248;6.968;2023-12-29T01:41:55;9.70;99.90
27978;DHT22;15314;49.248;6.968;2023-12-29T01:42:56;9.80;99.90
27978;DHT22;15314;49.248;6.968;2023-12-29T01:45:00;9.70;99.90
27978;DHT22;15314;49.248;6.968;2023-12-29T01:46:02;9.70;99.90
27978;DHT22;15314;49.248;6.968;2023-12-29T01:47:09;9.60;99.90
27978;DHT22;15314;49.248;6.968;2023-12-29T01:48:10;9.70;99.90
27978;DHT22;15314;49.248;6.968;2023-12-29T01:49:12;9.70;99.90
27978;DHT22;15314;49.248;6.968;2023-12-29T01:50:13;9.80;99.90
27978;DHT22;15314;49.248;6.968;2023-12-29T01:51:15;9.80;99.90
27978;DHT22;15314;49.248;6.968;2023-12-29T01:52:16;9.90;99.90
27978;DHT22;15314;49.248;6.968;2023-12-29T01:53:17;9.80;99.90
27978;DHT22;15314;49.248;6.968;2023-12-29T01:54:19;9.90;99.90
27978;DHT22;15314;49.248;6.968;2023-12-29T01:55:20;9.80;99.90
27978;DHT22;15314;49.248;6.968;2023-12-29T01:56:25;9.80;99.90
27978;DHT22;15314;49.248;6.968;2023-12-29T01:57:26;9.80;99.90
27978;DHT22;15314;49.248;6.968;2023-12-29T01:58:27;9.80;99.90
27978;DHT22;15314;49.248;6.968;2023-12-29T01:59:28;9.90;99.90
27978;DHT22;15314;49.248;6.968;2023-12-29T02:00:29;9.90;99.90
27978;DHT22;15314;49.248;6.968;2023-12-29T02:01:32;10.10;99.90
27978;DHT22;15314;49.248;6.968;2023-12-29T02:02:33;10.00;99.90
27978;DHT22;15314;49.248;6.968;2023-12-29T02:03:34;10.00;99.90
27978;DHT22;15314;49.248;6.968;2023-12-29T02:04:36;10.00;99.90
27978;DHT22;15314;49.248;6.968;2023-12-29T02:05:38;9.90;99.90
27978;DHT22;15314;49.248;6.968;2023-12-29T02:06:39;9.90;99.90
27978;DHT22;15314;49.248;6.968;2023-12-29T02:07:41;9.90;99.90
27978;DHT22;15314;49.248;6.968;2023-12-29T02:08:42;9.80;99.90
27978;DHT22;15314;49.248;6.968;2023-12-29T02:09:44;9.90;99.90
27978;DHT22;15314;49.248;6.968;2023-12-29T02:10:45;9.90;99.90
27978;DHT22;15314;49.248;6.968;2023-12-29T02:11:46;9.80;99.90
27978;DHT22;15314;49.248;6.968;2023-12-29T02:12:47;9.80;99.90
27978;DHT22;15314;49.248;6.968;2023-12-29T02:13:54;9.80;99.90
27978;DHT22;15314;49.248;6.968;2023-12-29T02:14:55;9.70;99.90
27978;DHT22;15314;49.248;6.968;2023-12-29T02:15:59;9.80;99.90
27978;DHT22;15314;49.248;6.968;2023-12-29T02:17:27;9.80;99.90
27978;DHT22;15314;49.248;6.968;2023-12-29T02:18:30;9.80;99.90
27978;DHT22;15314;49.248;6.968;2023-12-29T02:19:42;9.80;99.90
27978;DHT22;15314;49.248;6.968;2023-12-29T02:20:44;9.70;99.90
27978;DHT22;15314;49.248;6.968;2023-12-29T02:21:45;9.70;99.90
27978;DHT22;15314;49.248;6.968;2023-12-29T02:22:46;9.70;99.90
27978;DHT22;15314;49.248;6.968;2023-12-29T02:23:46;9.70;99.90
27978;DHT22;15314;49.248;6.968;2023-12-29T02:24:50;9.70;99.90
27978;DHT22;15314;49.248;6.968;2023-12-29T02:25:53;9.70;99.90
27978;DHT22;15314;49.248;6.968;2023-12-29T02:28:39;9.70;99.90
27978;DHT22;15314;49.248;6.968;2023-12-29T02:29:53;9.70;99.90
27978;DHT22;15314;49.248;6.968;2023-12-29T02:31:04;9.70;99.90
27978;DHT22;15314;49.248;6.968;2023-12-29T02:32:07;9.70;99.90
27978;DHT22;15314;49.248;6.968;2023-12-29T02:33:22;9.70;99.90
27978;DHT22;15314;49.248;6.968;2023-12-29T02:34:23;9.70;99.90
27978;DHT22;15314;49.248;6.968;2023-12-29T02:35:27;9.60;99.90
27978;DHT22;15314;49.248;6.968;2023-12-29T02:36:29;9.60;99.90
27978;DHT22;15314;49.248;6.968;2023-12-29T02:37:31;9.60;99.90
27978;DHT22;15314;49.248;6.968;2023-12-29T02:38:32;9.50;99.90
27978;DHT22;15314;49.248;6.968;2023-12-29T02:39:34;9.50;99.90
27978;DHT22;15314;49.248;6.968;2023-12-29T02:40:35;9.40;99.90
27978;DHT22;15314;49.248;6.968;2023-12-29T02:41:39;9.40;99.90
27978;DHT22;15314;49.248;6.968;2023-12-29T02:42:47;9.40;99.90
27978;DHT22;15314;49.248;6.968;2023-12-29T02:43:48;9.40;99.90
27978;DHT22;15314;49.248;6.968;2023-12-29T02:44:49;9.40;99.90
27978;DHT22;15314;49.248;6.968;2023-12-29T02:45:49;9.40;99.90
27978;DHT22;15314;49.248;6.968;2023-12-29T02:46:50;9.40;99.90
27978;DHT22;15314;49.248;6.968;2023-12-29T02:47:51;9.30;99.90
27978;DHT22;15314;49.248;6.968;2023-12-29T02:48:52;9.40;99.90
27978;DHT22;15314;49.248;6.968;2023-12-29T02:49:53;9.40;99.90
27978;DHT22;15314;49.248;6.968;2023-12-29T02:50:54;9.40;99.90
27978;DHT22;15314;49.248;6.968;2023-12-29T02:51:55;9.30;99.90
27978;DHT22;15314;49.248;6.968;2023-12-29T02:52:56;9.30;99.90
27978;DHT22;15314;49.248;6.968;2023-12-29T02:53:56;9.30;99.90
27978;DHT22;15314;49.248;6.968;2023-12-29T02:54:57;9.20;99.90
27978;DHT22;15314;49.248;6.968;2023-12-29T02:55:58;9.20;99.90
27978;DHT22;15314;49.248;6.968;2023-12-29T02:56:58;9.20;99.90
27978;DHT22;15314;49.248;6.968;2023-12-29T02:57:59;9.20;99.90
27978;DHT22;15314;49.248;6.968;2023-12-29T02:59:00;9.20;99.90
27978;DHT22;15314;49.248;6.968;2023-12-29T03:00:00;9.10;99.90
27978;DHT22;15314;49.248;6.968;2023-12-29T03:01:01;9.10;99.90
27978;DHT22;15314;49.248;6.968;2023-12-29T03:02:02;9.10;99.90
27978;DHT22;15314;49.248;6.968;2023-12-29T03:03:02;9.10;99.90
27978;DHT22;15314;49.248;6.968;2023-12-29T03:04:03;9.10;99.90
27978;DHT22;15314;49.248;6.968;2023-12-29T03:05:04;9.20;99.90
27978;DHT22;15314;49.248;6.968;2023-12-29T03:06:06;9.20;99.90
27978;DHT22;15314;49.248;6.968;2023-12-29T03:07:06;9.30;99.90
27978;DHT22;15314;49.248;6.968;2023-12-29T03:08:07;9.40;99.90
27978;DHT22;15314;49.248;6.968;2023-12-29T03:09:07;9.40;99.90
27978;DHT22;15314;49.248;6.968;2023-12-29T03:10:08;9.40;99.90
27978;DHT22;15314;49.248;6.968;2023-12-29T03:11:09;9.40;99.90
27978;DHT22;15314;49.248;6.968;2023-12-29T03:12:10;9.40;99.90
27978;DHT22;15314;49.248;6.968;2023-12-29T03:13:10;9.50;99.90
27978;DHT22;15314;49.248;6.968;2023-12-29T03:14:11;9.50;99.90
27978;DHT22;15314;49.248;6.968;2023-12-29T03:15:11;9.50;99.90
27978;DHT22;15314;49.248;6.968;2023-12-29T03:16:12;9.40;99.90
27978;DHT22;15314;49.248;6.968;2023-12-29T03:17:13;9.40;99.90
27978;DHT22;15314;49.248;6.968;2023-12-29T03:18:13;9.30;99.90
27978;DHT22;15314;49.248;6.968;2023-12-29T03:19:14;9.30;99.90
27978;DHT22;15314;49.248;6.968;2023-12-29T03:20:15;9.20;99.90
27978;DHT22;15314;49.248;6.968;2023-12-29T03:21:15;9.20;99.90
27978;DHT22;15314;49.248;6.968;2023-12-29T03:22:16;9.20;99.90
27978;DHT22;15314;49.248;6.968;2023-12-29T03:23:16;9.10;99.90
27978;DHT22;15314;49.248;6.968;2023-12-29T03:24:17;9.10;99.90
27978;DHT22;15314;49.248;6.968;2023-12-29T03:25:18;9.10;99.90
27978;DHT22;15314;49.248;6.968;2023-12-29T03:26:19;9.10;99.90
27978;DHT22;15314;49.248;6.968;2023-12-29T03:27:19;9.00;99.90
27978;DHT22;15314;49.248;6.968;2023-12-29T03:28:20;9.00;99.90
27978;DHT22;15314;49.248;6.968;2023-12-29T03:29:21;9.00;99.90
27978;DHT22;15314;49.248;6.968;2023-12-29T03:30:21;9.10;99.90
27978;DHT22;15314;49.248;6.968;2023-12-29T03:31:22;9.10;99.90
27978;DHT22;15314;49.248;6.968;2023-12-29T03:32:22;9.00;99.90
27978;DHT22;15314;49.248;6.968;2023-12-29T03:33:23;9.00;99.90
27978;DHT22;15314;49.248;6.968;2023-12-29T03:34:24;9.00;99.90
27978;DHT22;15314;49.248;6.968;2023-12-29T03:35:24;9.00;99.90
27978;DHT22;15314;49.248;6.968;2023-12-29T03:36:25;8.90;99.90
27978;DHT22;15314;49.248;6.968;2023-12-29T03:37:25;9.00;99.90
27978;DHT22;15314;49.248;6.968;2023-12-29T03:38:26;8.90;99.90
27978;DHT22;15314;49.248;6.968;2023-12-29T03:39:27;8.90;99.90
27978;DHT22;15314;49.248;6.968;2023-12-29T03:40:27;8.90;99.90
27978;DHT22;15314;49.248;6.968;2023-12-29T03:41:28;9.00;99.90
27978;DHT22;15314;49.248;6.968;2023-12-29T03:42:29;8.90;99.90
27978;DHT22;15314;49.248;6.968;2023-12-29T03:43:29;8.90;99.90
27978;DHT22;15314;49.248;6.968;2023-12-29T03:44:30;8.90;99.90
27978;DHT22;15314;49.248;6.968;2023-12-29T03:45:31;8.90;99.90
27978;DHT22;15314;49.248;6.968;2023-12-29T03:46:31;8.90;99.90
27978;DHT22;15314;49.248;6.968;2023-12-29T03:47:33;8.90;99.90
27978;DHT22;15314;49.248;6.968;2023-12-29T03:48:33;8.80;99.90
27978;DHT22;15314;49.248;6.968;2023-12-29T03:49:34;8.90;99.90
27978;DHT22;15314;49.248;6.968;2023-12-29T03:50:35;8.90;99.90
27978;DHT22;15314;49.248;6.968;2023-12-29T03:51:36;8.80;99.90
27978;DHT22;15314;49.248;6.968;2023-12-29T03:52:36;8.90;99.90
27978;DHT22;15314;49.248;6.968;2023-12-29T03:53:37;8.90;99.90
27978;DHT22;15314;49.248;6.968;2023-12-29T03:54:38;8.80;99.90
27978;DHT22;15314;49.248;6.968;2023-12-29T03:55:38;8.80;99.90
27978;DHT22;15314;49.248;6.968;2023-12-29T03:56:39;8.80;99.90
27978;DHT22;15314;49.248;6.968;2023-12-29T03:57:39;8.80;99.90
27978;DHT22;15314;49.248;6.968;2023-12-29T03:58:40;8.70;99.90
27978;DHT22;15314;49.248;6.968;2023-12-29T03:59:40;8.80;99.90
27978;DHT22;15314;49.248;6.968;2023-12-29T04:00:41;8.70;99.90
27978;DHT22;15314;49.248;6.968;2023-12-29T04:01:42;8.70;99.90
27978;DHT22;15314;49.248;6.968;2023-12-29T04:02:43;8.70;99.90
27978;DHT22;15314;49.248;6.968;2023-12-29T04:03:44;8.70;99.90
27978;DHT22;15314;49.248;6.968;2023-12-29T04:04:44;8.70;99.90
27978;DHT22;15314;49.248;6.968;2023-12-29T04:05:45;8.60;99.90
27978;DHT22;15314;49.248;6.968;2023-12-29T04:06:45;8.60;99.90
27978;DHT22;15314;49.248;6.968;2023-12-29T04:07:46;8.60;99.90
27978;DHT22;15314;49.248;6.968;2023-12-29T04:08:47;8.60;99.90
27978;DHT22;15314;49.248;6.968;2023-12-29T04:09:47;8.60;99.90
27978;DHT22;15314;49.248;6.968;2023-12-29T04:10:48;8.60;99.90
27978;DHT22;15314;49.248;6.968;2023-12-29T04:11:49;8.60;99.90
27978;DHT22;15314;49.248;6.968;2023-12-29T04:12:49;8.60;99.90
27978;DHT22;15314;49.248;6.968;2023-12-29T04:13:50;8.60;99.90
27978;DHT22;15314;49.248;6.968;2023-12-29T04:14:50;8.60;99.90
27978;DHT22;15314;49.248;6.968;2023-12-29T04:15:51;8.60;99.90
27978;DHT22;15314;49.248;6.968;2023-12-29T04:16:52;8.60;99.90
27978;DHT22;15314;49.248;6.968;2023-12-29T04:17:52;8.60;99.90
27978;DHT22;15314;49.248;6.968;2023-12-29T04:18:53;8.60;99.90
27978;DHT22;15314;49.248;6.968;2023-12-29T04:19:53;8.60;99.90
27978;DHT22;15314;49.248;6.968;2023-12-29T04:20:54;8.60;99.90
27978;DHT22;15314;49.248;6.968;2023-12-29T04:21:55;8.60;99.90
27978;DHT22;15314;49.248;6.968;2023-12-29T04:22:55;8.60;99.90
27978;DHT22;15314;49.248;6.968;2023-12-29T04:23:56;8.60;99.90
27978;DHT22;15314;49.248;6.968;2023-12-29T04:24:57;8.70;99.90
27978;DHT22;15314;49.248;6.968;2023-12-29T04:25:57;8.70;99.90
27978;DHT22;15314;49.248;6.968;2023-12-29T04:26:58;8.70;99.90
27978;DHT22;15314;49.248;6.968;2023-12-29T04:27:59;8.70;99.90
27978;DHT22;15314;49.248;6.968;2023-12-29T04:28:59;8.70;99.90
27978;DHT22;15314;49.248;6.968;2023-12-29T04:30:00;8.70;99.90
27978;DHT22;15314;49.248;6.968;2023-12-29T04:31:00;8.70;99.90
27978;DHT22;15314;49.248;6.968;2023-12-29T04:32:01;8.70;99.90
27978;DHT22;15314;49.248;6.968;2023-12-29T04:33:02;8.80;99.90
27978;DHT22;15314;49.248;6.968;2023-12-29T04:34:02;8.80;99.90
27978;DHT22;15314;49.248;6.968;2023-12-29T04:35:04;8.80;99.90
27978;DHT22;15314;49.248;6.968;2023-12-29T04:36:05;8.80;99.90
27978;DHT22;15314;49.248;6.968;2023-12-29T04:37:05;8.80;99.90
27978;DHT22;15314;49.248;6.968;2023-12-29T04:38:06;8.90;99.90
27978;DHT22;15314;49.248;6.968;2023-12-29T04:39:07;8.90;99.90
27978;DHT22;15314;49.248;6.968;2023-12-29T04:40:10;8.80;99.90
27978;DHT22;15314;49.248;6.968;2023-12-29T04:41:14;8.90;99.90
27978;DHT22;15314;49.248;6.968;2023-12-29T04:42:15;8.80;99.90
27978;DHT22;15314;49.248;6.968;2023-12-29T04:43:16;8.80;99.90
27978;DHT22;15314;49.248;6.968;2023-12-29T04:44:16;8.80;99.90
27978;DHT22;15314;49.248;6.968;2023-12-29T04:45:17;8.80;99.90
27978;DHT22;15314;49.248;6.968;2023-12-29T04:46:18;8.80;99.90
27978;DHT22;15314;49.248;6.968;2023-12-29T04:47:18;8.80;99.90
27978;DHT22;15314;49.248;6.968;2023-12-29T04:48:19;8.80;99.90
27978;DHT22;15314;49.248;6.968;2023-12-29T04:49:20;8.80;99.90
27978;DHT22;15314;49.248;6.968;2023-12-29T04:50:20;8.80;99.90
27978;DHT22;15314;49.248;6.968;2023-12-29T04:51:21;8.80;99.90
27978;DHT22;15314;49.248;6.968;2023-12-29T04:52:22;8.70;99.90
27978;DHT22;15314;49.248;6.968;2023-12-29T04:53:22;8.80;99.90
27978;DHT22;15314;49.248;6.968;2023-12-29T04:54:23;8.80;99.90
27978;DHT22;15314;49.248;6.968;2023-12-29T04:55:24;8.80;99.90
27978;DHT22;15314;49.248;6.968;2023-12-29T04:56:25;8.80;99.90
27978;DHT22;15314;49.248;6.968;2023-12-29T04:57:25;8.80;99.90
27978;DHT22;15314;49.248;6.968;2023-12-29T04:58:26;8.80;99.90
27978;DHT22;15314;49.248;6.968;2023-12-29T04:59:26;8.70;99.90
27978;DHT22;15314;49.248;6.968;2023-12-29T05:00:27;8.70;99.90
27978;DHT22;15314;49.248;6.968;2023-12-29T05:01:28;8.70;99.90
27978;DHT22;15314;49.248;6.968;2023-12-29T05:02:28;8.70;99.90
27978;DHT22;15314;49.248;6.968;2023-12-29T05:03:29;8.70;99.90
27978;DHT22;15314;49.248;6.968;2023-12-29T05:04:29;8.80;99.90
27978;DHT22;15314;49.248;6.968;2023-12-29T05:05:30;8.80;99.90
27978;DHT22;15314;49.248;6.968;2023-12-29T05:06:31;8.90;99.90
27978;DHT22;15314;49.248;6.968;2023-12-29T05:07:32;8.90;99.90
27978;DHT22;15314;49.248;6.968;2023-12-29T05:08:32;9.00;99.90
27978;DHT22;15314;49.248;6.968;2023-12-29T05:09:33;9.10;99.90
27978;DHT22;15314;49.248;6.968;2023-12-29T05:10:33;9.10;99.90
27978;DHT22;15314;49.248;6.968;2023-12-29T05:11:37;9.10;99.90
27978;DHT22;15314;49.248;6.968;2023-12-29T05:12:37;9.20;99.90
27978;DHT22;15314;49.248;6.968;2023-12-29T05:13:38;9.20;99.90
27978;DHT22;15314;49.248;6.968;2023-12-29T05:14:38;9.30;99.90
27978;DHT22;15314;49.248;6.968;2023-12-29T05:15:39;9.30;99.90
27978;DHT22;15314;49.248;6.968;2023-12-29T05:16:41;9.30;99.90
27978;DHT22;15314;49.248;6.968;2023-12-29T05:17:42;9.30;99.90
27978;DHT22;15314;49.248;6.968;2023-12-29T05:18:42;9.40;99.90
27978;DHT22;15314;49.248;6.968;2023-12-29T05:19:43;9.30;99.90
27978;DHT22;15314;49.248;6.968;2023-12-29T05:20:43;9.40;99.90
27978;DHT22;15314;49.248;6.968;2023-12-29T05:21:44;9.40;99.90
27978;DHT22;15314;49.248;6.968;2023-12-29T05:22:45;9.40;99.90
27978;DHT22;15314;49.248;6.968;2023-12-29T05:23:45;9.40;99.90
27978;DHT22;15314;49.248;6.968;2023-12-29T05:24:47;9.40;99.90
27978;DHT22;15314;49.248;6.968;2023-12-29T05:25:48;9.40;99.90
27978;DHT22;15314;49.248;6.968;2023-12-29T05:26:49;9.40;99.90
27978;DHT22;15314;49.248;6.968;2023-12-29T05:27:50;9.40;99.90
27978;DHT22;15314;49.248;6.968;2023-12-29T05:28:51;9.40;99.90
27978;DHT22;15314;49.248;6.968;2023-12-29T05:29:52;9.40;99.90
27978;DHT22;15314;49.248;6.968;2023-12-29T05:30:54;9.40;99.90
27978;DHT22;15314;49.248;6.968;2023-12-29T05:31:55;9.40;99.90
27978;DHT22;15314;49.248;6.968;2023-12-29T05:32:55;9.50;99.90
27978;DHT22;15314;49.248;6.968;2023-12-29T05:33:56;9.40;99.90
27978;DHT22;15314;49.248;6.968;2023-12-29T05:34:57;9.50;99.90
27978;DHT22;15314;49.248;6.968;2023-12-29T05:35:58;9.50;99.90
27978;DHT22;15314;49.248;6.968;2023-12-29T05:36:59;9.50;99.90
27978;DHT22;15314;49.248;6.968;2023-12-29T05:38:00;9.50;99.90
27978;DHT22;15314;49.248;6.968;2023-12-29T05:39:00;9.50;99.90
27978;DHT22;15314;49.248;6.968;2023-12-29T05:40:01;9.50;99.90
27978;DHT22;15314;49.248;6.968;2023-12-29T05:41:02;9.50;99.90
27978;DHT22;15314;49.248;6.968;2023-12-29T05:42:04;9.50;99.90
27978;DHT22;15314;49.248;6.968;2023-12-29T05:43:05;9.50;99.90
27978;DHT22;15314;49.248;6.968;2023-12-29T05:44:06;9.50;99.90
27978;DHT22;15314;49.248;6.968;2023-12-29T05:45:07;9.50;99.90
27978;DHT22;15314;49.248;6.968;2023-12-29T05:46:11;9.50;99.90
27978;DHT22;15314;49.248;6.968;2023-12-29T05:47:12;9.50;99.90
27978;DHT22;15314;49.248;6.968;2023-12-29T05:48:12;9.50;99.90
27978;DHT22;15314;49.248;6.968;2023-12-29T05:49:13;9.50;99.90
27978;DHT22;15314;49.248;6.968;2023-12-29T05:50:14;9.40;99.90
27978;DHT22;15314;49.248;6.968;2023-12-29T05:51:14;9.50;99.90
27978;DHT22;15314;49.248;6.968;2023-12-29T05:52:15;9.50;99.90
27978;DHT22;15314;49.248;6.968;2023-12-29T05:53:16;9.50;99.90
27978;DHT22;15314;49.248;6.968;2023-12-29T05:54:16;9.50;99.90
27978;DHT22;15314;49.248;6.968;2023-12-29T05:55:18;9.40;99.90
27978;DHT22;15314;49.248;6.968;2023-12-29T05:56:20;9.40;99.90
27978;DHT22;15314;49.248;6.968;2023-12-29T05:57:20;9.40;99.90
27978;DHT22;15314;49.248;6.968;2023-12-29T05:58:21;9.50;99.90
27978;DHT22;15314;49.248;6.968;2023-12-29T05:59:21;9.50;99.90
27978;DHT22;15314;49.248;6.968;2023-12-29T06:00:22;9.40;99.90
27978;DHT22;15314;49.248;6.968;2023-12-29T06:01:23;9.40;99.90
27978;DHT22;15314;49.248;6.968;2023-12-29T06:02:23;9.50;99.90
27978;DHT22;15314;49.248;6.968;2023-12-29T06:03:24;9.50;99.90
27978;DHT22;15314;49.248;6.968;2023-12-29T06:04:25;9.40;99.90
27978;DHT22;15314;49.248;6.968;2023-12-29T06:05:25;9.40;99.90
27978;DHT22;15314;49.248;6.968;2023-12-29T06:06:26;9.40;99.90
27978;DHT22;15314;49.248;6.968;2023-12-29T06:07:27;9.40;99.90
27978;DHT22;15314;49.248;6.968;2023-12-29T06:08:27;9.40;99.90
27978;DHT22;15314;49.248;6.968;2023-12-29T06:09:28;9.50;99.90
27978;DHT22;15314;49.248;6.968;2023-12-29T06:10:29;9.40;99.90
27978;DHT22;15314;49.248;6.968;2023-12-29T06:11:29;9.40;99.90
27978;DHT22;15314;49.248;6.968;2023-12-29T06:12:30;9.40;99.90
27978;DHT22;15314;49.248;6.968;2023-12-29T06:13:31;9.40;99.90
27978;DHT22;15314;49.248;6.968;2023-12-29T06:14:31;9.40;99.90
27978;DHT22;15314;49.248;6.968;2023-12-29T06:15:32;9.40;99.90
27978;DHT22;15314;49.248;6.968;2023-12-29T06:16:33;9.40;99.90
27978;DHT22;15314;49.248;6.968;2023-12-29T06:17:34;9.40;99.90
27978;DHT22;15314;49.248;6.968;2023-12-29T06:18:35;9.30;99.90
27978;DHT22;15314;49.248;6.968;2023-12-29T06:19:36;9.30;99.90
27978;DHT22;15314;49.248;6.968;2023-12-29T06:20:37;9.30;99.90
27978;DHT22;15314;49.248;6.968;2023-12-29T06:21:43;9.30;99.90
27978;DHT22;15314;49.248;6.968;2023-12-29T06:22:44;9.30;99.90
27978;DHT22;15314;49.248;6.968;2023-12-29T06:23:45;9.30;99.90
27978;DHT22;15314;49.248;6.968;2023-12-29T06:24:46;9.30;99.90
27978;DHT22;15314;49.248;6.968;2023-12-29T06:25:47;9.40;99.90
27978;DHT22;15314;49.248;6.968;2023-12-29T06:26:47;9.40;99.90
27978;DHT22;15314;49.248;6.968;2023-12-29T06:27:48;9.40;99.90
27978;DHT22;15314;49.248;6.968;2023-12-29T06:28:49;9.40;99.90
27978;DHT22;15314;49.248;6.968;2023-12-29T06:29:49;9.40;99.90
27978;DHT22;15314;49.248;6.968;2023-12-29T06:30:50;9.40;99.90
27978;DHT22;15314;49.248;6.968;2023-12-29T06:31:51;9.40;99.90
27978;DHT22;15314;49.248;6.968;2023-12-29T06:32:52;9.40;99.90
27978;DHT22;15314;49.248;6.968;2023-12-29T06:33:52;9.40;99.90
27978;DHT22;15314;49.248;6.968;2023-12-29T06:34:53;9.50;99.90